Time;durP1;ratioP1;P1;durP2;ratioP2;P2;SDS_P1;SDS_P2;PMS_P1;PMS_P2;Temp;Humidity;BMP_temperature;BMP_pressure;BME280_temperature;BME280_humidity;BME280_pressure;Samples;Min_cycle;Max_cycle;Signal;HPM_P1;HPM_P2
2022/03/22 00:00:22;;;;;;;238.48;113.40;;;;;;;;;;5076936;28;20062;-70
2022/03/22 00:02:47;;;;;;;215.50;109.70;;;;;;;;;;5079511;28;20012;-70
2022/03/22 00:05:14;;;;;;;267.90;117.20;;;;;;;;;;5072041;28;20024;-71
2022/03/22 00:07:39;;;;;;;283.38;127.30;;;;;;;;;;5065777;28;20131;-72
2022/03/22 00:10:05;;;;;;;302.40;135.65;;;;;;;;;;5071230;28;20218;-70
2022/03/22 00:12:31;;;;;;;261.15;127.30;;;;;;;;;;5079059;28;20462;-72
2022/03/22 00:14:57;;;;;;;302.67;144.98;;;;;;;;;;5079308;28;20040;-71
2022/03/22 00:17:23;;;;;;;253.45;122.40;;;;;;;;;;5079334;28;20035;-70
2022/03/22 00:19:48;;;;;;;369.35;179.73;;;;;;;;;;5079527;28;20020;-70
2022/03/22 00:22:14;;;;;;;316.73;152.00;;;;;;;;;;5067466;28;20101;-71
2022/03/22 00:24:40;;;;;;;250.18;108.40;;;;;;;;;;5066270;28;20098;-71
2022/03/22 00:27:05;;;;;;;166.18;78.28;;;;;;;;;;5074518;28;20115;-71
2022/03/22 00:29:30;;;;;;;170.27;81.63;;;;;;;;;;5078744;28;20153;-71
2022/03/22 00:31:56;;;;;;;187.48;90.75;;;;;;;;;;5078361;28;20427;-69
2022/03/22 00:34:23;;;;;;;260.90;126.25;;;;;;;;;;5078178;28;20032;-68
2022/03/22 00:36:49;;;;;;;244.15;115.93;;;;;;;;;;5075997;28;20024;-69
2022/03/22 00:39:15;;;;;;;242.77;119.53;;;;;;;;;;5067219;28;20101;-69
2022/03/22 00:41:40;;;;;;;186.25;87.20;;;;;;;;;;5070497;28;20038;-71
2022/03/22 00:44:06;;;;;;;207.00;101.88;;;;;;;;;;5079039;28;20032;-69
2022/03/22 00:46:31;;;;;;;173.40;86.95;;;;;;;;;;5071050;28;20092;-70
2022/03/22 00:48:58;;;;;;;112.30;52.10;;;;;;;;;;5082555;28;20043;-69
2022/03/22 00:51:24;;;;;;;116.10;58.83;;;;;;;;;;5082352;28;20024;-70
2022/03/22 00:53:51;;;;;;;107.53;53.75;;;;;;;;;;5075893;28;20052;-72
2022/03/22 00:56:17;;;;;;;162.43;84.80;;;;;;;;;;5072776;28;20351;-69
2022/03/22 00:58:43;;;;;;;216.15;103.82;;;;;;;;;;5082595;28;20016;-71
2022/03/22 01:01:08;;;;;;;148.40;72.75;;;;;;;;;;5082508;28;20472;-72
2022/03/22 01:03:33;;;;;;;155.60;71.88;;;;;;;;;;5080642;28;20028;-72
2022/03/22 01:06:01;;;;;;;161.13;74.82;;;;;;;;;;5080260;28;20412;-72
2022/03/22 01:08:30;;;;;;;145.52;67.93;;;;;;;;;;5069598;28;20612;-70
2022/03/22 01:10:55;;;;;;;101.18;51.17;;;;;;;;;;5068114;28;20024;-71
2022/03/22 01:13:22;;;;;;;112.63;54.97;;;;;;;;;;5069594;28;20063;-73
2022/03/22 01:15:49;;;;;;;113.10;55.65;;;;;;;;;;5069009;28;20056;-70
2022/03/22 01:18:14;;;;;;;228.60;112.55;;;;;;;;;;5052106;28;20016;-70
2022/03/22 01:20:41;;;;;;;165.35;77.68;;;;;;;;;;5082678;28;20084;-71
2022/03/22 01:23:07;;;;;;;103.10;53.88;;;;;;;;;;5082084;28;20066;-70
2022/03/22 01:25:34;;;;;;;98.57;50.13;;;;;;;;;;5072592;28;20060;-70
2022/03/22 01:28:02;;;;;;;170.52;80.82;;;;;;;;;;5078997;28;20457;-71
2022/03/22 01:30:29;;;;;;;163.98;73.00;;;;;;;;;;5070532;28;20111;-71
2022/03/22 01:32:55;;;;;;;124.32;58.47;;;;;;;;;;5073813;28;20028;-71
2022/03/22 01:35:21;;;;;;;149.73;67.57;;;;;;;;;;5079740;28;20085;-72
2022/03/22 01:37:47;;;;;;;148.27;63.63;;;;;;;;;;5082582;28;20023;-71
2022/03/22 01:40:13;;;;;;;112.32;50.13;;;;;;;;;;5072173;28;20022;-71
2022/03/22 01:42:38;;;;;;;109.75;49.30;;;;;;;;;;5076700;28;20370;-70
2022/03/22 01:45:04;;;;;;;75.28;36.88;;;;;;;;;;5070697;28;20065;-70
2022/03/22 01:47:29;;;;;;;69.57;34.47;;;;;;;;;;5081508;28;20044;-71
2022/03/22 01:49:55;;;;;;;69.15;34.72;;;;;;;;;;5080365;28;20034;-70
2022/03/22 01:52:23;;;;;;;91.07;44.05;;;;;;;;;;5082426;28;20400;-70
2022/03/22 01:54:50;;;;;;;128.73;56.83;;;;;;;;;;5071903;28;20431;-71
2022/03/22 01:57:17;;;;;;;123.63;52.78;;;;;;;;;;5068324;28;20351;-70
2022/03/22 01:59:43;;;;;;;82.75;38.17;;;;;;;;;;5072875;28;20024;-70
2022/03/22 02:07:37;;;;;;;99.60;46.00;;;;;;;;;;5080447;28;20100;-70
2022/03/22 02:10:03;;;;;;;95.57;47.17;;;;;;;;;;5082008;28;20039;-70
2022/03/22 02:12:28;;;;;;;74.85;37.72;;;;;;;;;;5081987;28;20016;-71
2022/03/22 02:14:53;;;;;;;64.00;31.48;;;;;;;;;;5069774;28;21138;-71
2022/03/22 02:17:19;;;;;;;56.38;29.38;;;;;;;;;;5078227;28;20024;-70
2022/03/22 02:19:44;;;;;;;85.90;41.25;;;;;;;;;;5080857;28;20031;-69
2022/03/22 02:22:11;;;;;;;79.05;37.00;;;;;;;;;;5070303;28;20095;-70
2022/03/22 02:24:39;;;;;;;77.65;37.72;;;;;;;;;;5080328;28;20047;-72
2022/03/22 02:27:07;;;;;;;82.47;40.67;;;;;;;;;;5079712;28;20027;-71
2022/03/22 02:29:32;;;;;;;77.40;38.85;;;;;;;;;;5070515;28;20373;-72
2022/03/22 02:31:57;;;;;;;62.63;31.38;;;;;;;;;;5075259;28;20084;-72
2022/03/22 02:34:23;;;;;;;81.60;38.40;;;;;;;;;;5082791;28;20032;-71
2022/03/22 02:36:48;;;;;;;119.03;55.85;;;;;;;;;;5078513;28;20335;-72
2022/03/22 02:39:13;;;;;;;105.63;48.22;;;;;;;;;;5072584;28;20326;-70
2022/03/22 02:41:39;;;;;;;118.85;50.47;;;;;;;;;;5079768;28;20020;-73
2022/03/22 02:44:04;;;;;;;114.70;49.95;;;;;;;;;;5075928;28;20035;-71
2022/03/22 02:46:30;;;;;;;111.38;48.13;;;;;;;;;;5067836;28;20467;-73
2022/03/22 02:48:55;;;;;;;95.75;45.92;;;;;;;;;;5080009;28;20031;-71
2022/03/22 02:51:21;;;;;;;105.00;49.72;;;;;;;;;;5081123;28;20035;-71
2022/03/22 02:53:46;;;;;;;89.82;43.35;;;;;;;;;;5079790;28;20031;-71
2022/03/22 02:56:12;;;;;;;71.20;34.83;;;;;;;;;;5070271;28;20036;-72
2022/03/22 02:58:38;;;;;;;50.90;23.35;;;;;;;;;;5080218;28;20020;-71
2022/03/22 03:01:04;;;;;;;60.97;28.83;;;;;;;;;;5080927;28;20122;-71
2022/03/22 03:03:29;;;;;;;69.18;30.88;;;;;;;;;;5079504;28;20109;-70
2022/03/22 03:05:54;;;;;;;105.13;46.38;;;;;;;;;;5080040;28;20036;-71
2022/03/22 03:08:21;;;;;;;140.93;56.75;;;;;;;;;;5069663;28;20031;-71
2022/03/22 03:10:47;;;;;;;122.63;57.22;;;;;;;;;;5079750;28;20589;-71
2022/03/22 03:13:12;;;;;;;118.90;52.67;;;;;;;;;;5079940;28;20123;-72
2022/03/22 03:15:38;;;;;;;123.53;54.53;;;;;;;;;;5080508;28;20059;-73
2022/03/22 03:18:03;;;;;;;98.82;47.08;;;;;;;;;;5080223;28;20438;-72
2022/03/22 03:20:29;;;;;;;86.32;39.35;;;;;;;;;;5079805;28;20053;-72
2022/03/22 03:22:55;;;;;;;90.03;41.95;;;;;;;;;;5067344;28;20047;-71
2022/03/22 03:25:20;;;;;;;83.90;40.53;;;;;;;;;;5071315;28;20081;-71
2022/03/22 03:27:46;;;;;;;89.63;43.88;;;;;;;;;;5080091;28;20435;-70
2022/03/22 03:30:12;;;;;;;82.10;39.33;;;;;;;;;;5079940;28;20172;-73
2022/03/22 03:32:38;;;;;;;88.15;43.15;;;;;;;;;;5069108;28;20120;-71
2022/03/22 03:35:04;;;;;;;99.53;47.60;;;;;;;;;;5080057;28;20036;-71
2022/03/22 03:37:36;;;;;;;77.80;35.70;;;;;;;;;;5080312;28;20070;-73
2022/03/22 03:40:02;;;;;;;64.15;33.40;;;;;;;;;;5078716;28;20111;-72
2022/03/22 03:42:28;;;;;;;61.53;31.23;;;;;;;;;;5079831;28;20031;-73
2022/03/22 03:47:37;;;;;;;52.78;25.60;;;;;;;;;;5079814;28;20038;-72
2022/03/22 03:50:05;;;;;;;66.07;30.50;;;;;;;;;;5079748;28;20028;-72
2022/03/22 03:52:31;;;;;;;70.95;32.47;;;;;;;;;;5078514;28;20024;-72
2022/03/22 03:54:58;;;;;;;81.85;36.22;;;;;;;;;;5069547;28;20020;-73
2022/03/22 03:57:24;;;;;;;89.80;41.75;;;;;;;;;;5070667;28;20046;-72
2022/03/22 03:59:50;;;;;;;98.65;48.60;;;;;;;;;;5077647;28;20023;-72
2022/03/22 04:02:16;;;;;;;81.82;37.67;;;;;;;;;;5079543;28;20028;-72
2022/03/22 04:04:42;;;;;;;74.28;35.63;;;;;;;;;;5078718;28;20096;-72
2022/03/22 04:07:09;;;;;;;76.40;34.92;;;;;;;;;;5078418;28;20036;-72
2022/03/22 04:09:35;;;;;;;97.85;41.25;;;;;;;;;;5079689;28;20134;-72
2022/03/22 04:12:01;;;;;;;83.45;36.85;;;;;;;;;;5079637;28;20024;-73
2022/03/22 04:14:27;;;;;;;83.85;36.88;;;;;;;;;;5079261;28;20062;-73
2022/03/22 04:16:52;;;;;;;69.20;35.45;;;;;;;;;;5079067;28;20063;-71
2022/03/22 04:19:18;;;;;;;68.55;33.53;;;;;;;;;;5060935;28;20059;-72
2022/03/22 04:21:44;;;;;;;75.45;35.65;;;;;;;;;;5079345;28;20454;-72
2022/03/22 04:24:10;;;;;;;121.85;58.22;;;;;;;;;;5066862;28;20024;-72
2022/03/22 04:26:36;;;;;;;121.95;54.20;;;;;;;;;;5073357;28;20031;-71
2022/03/22 04:34:31;;;;;;;161.27;76.45;;;;;;;;;;5070458;28;20101;-71
2022/03/22 04:36:57;;;;;;;143.27;65.32;;;;;;;;;;5068846;28;20031;-72
2022/03/22 04:39:23;;;;;;;73.72;37.25;;;;;;;;;;5075444;28;20028;-71
2022/03/22 04:41:49;;;;;;;58.40;35.22;;;;;;;;;;5078189;28;20107;-71
2022/03/22 04:44:15;;;;;;;89.90;51.47;;;;;;;;;;5069935;28;20135;-71
2022/03/22 04:46:40;;;;;;;91.00;47.67;;;;;;;;;;5071330;28;20451;-71
2022/03/22 04:49:06;;;;;;;89.32;41.75;;;;;;;;;;5064902;28;20133;-71
2022/03/22 04:57:06;;;;;;;90.60;46.78;;;;;;;;;;5052426;28;20043;-73
2022/03/22 04:59:32;;;;;;;91.15;47.55;;;;;;;;;;5076476;28;20035;-72
2022/03/22 05:01:59;;;;;;;126.30;61.15;;;;;;;;;;5066277;28;20032;-70
2022/03/22 05:04:24;;;;;;;134.48;66.65;;;;;;;;;;5074046;28;20184;-70
2022/03/22 05:06:50;;;;;;;177.80;91.03;;;;;;;;;;5078254;28;20036;-71
2022/03/22 05:09:15;;;;;;;177.68;87.90;;;;;;;;;;5079352;28;20119;-70
2022/03/22 05:11:40;;;;;;;190.02;102.35;;;;;;;;;;5079431;28;20020;-71
2022/03/22 05:14:06;;;;;;;159.93;76.47;;;;;;;;;;5078855;28;20383;-70
2022/03/22 05:16:31;;;;;;;191.63;99.60;;;;;;;;;;5068139;28;20350;-70
2022/03/22 05:18:57;;;;;;;230.23;108.70;;;;;;;;;;5066232;28;20032;-70
2022/03/22 05:21:24;;;;;;;219.70;113.47;;;;;;;;;;5065440;28;20115;-73
2022/03/22 05:23:50;;;;;;;182.48;97.35;;;;;;;;;;5064515;28;20115;-69
2022/03/22 05:26:15;;;;;;;148.65;76.95;;;;;;;;;;5074349;28;20127;-71
2022/03/22 05:28:41;;;;;;;129.07;67.03;;;;;;;;;;5078736;28;20134;-67
2022/03/22 05:31:08;;;;;;;149.63;74.32;;;;;;;;;;5078167;28;20024;-68
2022/03/22 05:33:33;;;;;;;200.43;93.72;;;;;;;;;;5073981;28;20022;-70
2022/03/22 05:35:59;;;;;;;212.93;102.47;;;;;;;;;;5069435;28;20047;-68
2022/03/22 05:38:25;;;;;;;183.10;87.53;;;;;;;;;;5072909;28;20355;-67
2022/03/22 05:40:51;;;;;;;221.13;108.78;;;;;;;;;;5069282;28;20119;-64
2022/03/22 05:43:16;;;;;;;467.30;225.52;;;;;;;;;;5070114;28;20166;-68
2022/03/22 05:45:44;;;;;;;192.80;85.60;;;;;;;;;;5071853;28;20028;-67
2022/03/22 05:48:09;;;;;;;168.48;82.40;;;;;;;;;;5069171;28;20114;-71
2022/03/22 05:50:35;;;;;;;191.68;93.80;;;;;;;;;;5070570;28;20035;-69
2022/03/22 05:53:00;;;;;;;138.43;68.88;;;;;;;;;;5069965;28;20366;-66
2022/03/22 05:55:26;;;;;;;139.80;66.60;;;;;;;;;;5069100;28;20332;-70
2022/03/22 05:57:51;;;;;;;193.38;104.45;;;;;;;;;;5067920;28;20023;-69
2022/03/22 06:00:18;;;;;;;192.00;105.70;;;;;;;;;;5073304;28;20024;-67
2022/03/22 06:02:43;;;;;;;182.60;93.43;;;;;;;;;;5074281;28;20104;-67
2022/03/22 06:05:11;;;;;;;159.93;86.53;;;;;;;;;;5068375;28;20073;-67
2022/03/22 06:07:37;;;;;;;136.23;72.50;;;;;;;;;;5068709;28;20034;-67
2022/03/22 06:10:03;;;;;;;121.07;69.43;;;;;;;;;;5069845;28;20020;-69
2022/03/22 06:12:47;;;;;;;138.80;70.53;;;;;;;;;;5069580;28;20020;-69
2022/03/22 06:15:16;;;;;;;158.60;78.00;;;;;;;;;;5080602;28;20047;-71
2022/03/22 06:17:52;;;;;;;128.75;66.68;;;;;;;;;;5081931;28;20063;-70
2022/03/22 06:20:19;;;;;;;163.05;98.90;;;;;;;;;;5071753;28;20028;-71
2022/03/22 06:22:48;;;;;;;126.97;73.00;;;;;;;;;;5073340;28;20085;-69
2022/03/22 06:25:14;;;;;;;120.60;65.28;;;;;;;;;;5069396;28;20027;-68
2022/03/22 06:27:40;;;;;;;138.43;78.68;;;;;;;;;;5072842;28;20039;-66
2022/03/22 06:30:07;;;;;;;106.35;60.40;;;;;;;;;;5081402;28;20355;-66
2022/03/22 06:32:45;;;;;;;107.30;63.65;;;;;;;;;;5072913;28;20039;-68
2022/03/22 06:35:11;;;;;;;100.68;58.30;;;;;;;;;;5068687;28;20036;-69
2022/03/22 06:37:37;;;;;;;110.38;63.08;;;;;;;;;;5042906;28;20035;-70
2022/03/22 06:40:03;;;;;;;188.57;110.00;;;;;;;;;;5068345;28;20043;-72
2022/03/22 06:42:29;;;;;;;224.30;136.95;;;;;;;;;;5068370;28;20020;-72
2022/03/22 06:44:54;;;;;;;396.10;233.38;;;;;;;;;;5076898;28;20065;-69
2022/03/22 06:47:19;;;;;;;254.98;142.10;;;;;;;;;;5079268;28;20032;-70
2022/03/22 06:49:45;;;;;;;258.85;152.95;;;;;;;;;;5079733;28;20034;-70
2022/03/22 06:52:10;;;;;;;213.15;120.28;;;;;;;;;;5080805;28;20140;-70
2022/03/22 06:54:36;;;;;;;244.00;130.50;;;;;;;;;;5077640;28;20029;-69
2022/03/22 06:57:01;;;;;;;263.83;136.07;;;;;;;;;;5074071;28;20042;-70
2022/03/22 06:59:26;;;;;;;278.58;136.38;;;;;;;;;;5078778;28;20023;-71
2022/03/22 07:01:52;;;;;;;325.85;161.63;;;;;;;;;;5078494;28;20063;-70
2022/03/22 07:04:17;;;;;;;328.25;162.95;;;;;;;;;;5079976;28;20028;-71
2022/03/22 07:06:44;;;;;;;286.05;138.10;;;;;;;;;;5080370;28;20077;-70
2022/03/22 07:09:10;;;;;;;195.82;102.70;;;;;;;;;;5080266;28;20042;-70
2022/03/22 07:11:49;;;;;;;211.23;115.78;;;;;;;;;;5078568;28;20024;-69
2022/03/22 07:14:16;;;;;;;197.32;114.43;;;;;;;;;;5079884;28;20413;-70
2022/03/22 07:16:41;;;;;;;195.18;106.78;;;;;;;;;;5078399;28;20446;-69
2022/03/22 07:19:06;;;;;;;170.15;96.70;;;;;;;;;;5079469;28;20050;-71
2022/03/22 07:21:32;;;;;;;168.43;88.50;;;;;;;;;;5079283;28;20111;-69
2022/03/22 07:23:57;;;;;;;169.90;95.00;;;;;;;;;;5079767;28;20467;-70
2022/03/22 07:26:22;;;;;;;143.40;78.38;;;;;;;;;;5080260;28;20032;-70
2022/03/22 07:28:48;;;;;;;90.65;50.45;;;;;;;;;;5080759;28;20035;-68
2022/03/22 07:31:14;;;;;;;96.25;56.42;;;;;;;;;;5079806;28;20024;-68
2022/03/22 07:33:39;;;;;;;121.13;62.65;;;;;;;;;;5080439;28;20070;-68
2022/03/22 07:36:05;;;;;;;193.45;115.07;;;;;;;;;;5080789;28;20363;-68
2022/03/22 07:38:30;;;;;;;115.05;65.22;;;;;;;;;;5080742;28;20110;-68
2022/03/22 07:40:56;;;;;;;109.90;64.82;;;;;;;;;;5080818;28;20024;-68
2022/03/22 07:43:21;;;;;;;113.10;60.90;;;;;;;;;;5079879;28;20059;-69
2022/03/22 07:45:47;;;;;;;120.57;64.60;;;;;;;;;;5080202;28;20039;-67
2022/03/22 07:48:13;;;;;;;111.43;62.30;;;;;;;;;;5080555;28;20124;-69
2022/03/22 07:53:22;;;;;;;133.73;77.32;;;;;;;;;;5080563;28;20100;-69
2022/03/22 07:55:47;;;;;;;150.00;91.10;;;;;;;;;;5079714;28;20036;-68
2022/03/22 07:58:13;;;;;;;141.82;86.88;;;;;;;;;;5079681;28;20031;-67
2022/03/22 08:00:41;;;;;;;256.85;153.85;;;;;;;;;;5080817;28;20116;-69
2022/03/22 08:03:09;;;;;;;162.20;91.65;;;;;;;;;;5079059;28;20089;-67
2022/03/22 08:05:37;;;;;;;144.38;82.47;;;;;;;;;;5079792;28;20052;-67
2022/03/22 08:08:03;;;;;;;124.70;70.30;;;;;;;;;;5080091;28;20035;-68
2022/03/22 08:10:31;;;;;;;113.88;66.82;;;;;;;;;;5080886;28;20028;-67
2022/03/22 08:12:57;;;;;;;105.43;60.25;;;;;;;;;;5078696;28;20032;-68
2022/03/22 08:15:22;;;;;;;89.53;50.78;;;;;;;;;;5079042;28;20104;-68
2022/03/22 08:17:48;;;;;;;130.02;76.50;;;;;;;;;;5079353;28;20435;-67
2022/03/22 08:20:14;;;;;;;123.38;74.32;;;;;;;;;;5079873;28;20027;-67
2022/03/22 08:22:53;;;;;;;85.80;52.47;;;;;;;;;;5079824;28;20020;-67
2022/03/22 08:25:23;;;;;;;67.10;40.35;;;;;;;;;;5078631;28;20123;-67
2022/03/22 08:27:49;;;;;;;79.25;46.80;;;;;;;;;;5079550;28;20028;-66
2022/03/22 08:30:18;;;;;;;69.20;44.25;;;;;;;;;;5078956;28;20388;-66
2022/03/22 08:32:43;;;;;;;97.63;66.15;;;;;;;;;;5079607;28;20035;-66
2022/03/22 08:35:08;;;;;;;98.38;62.03;;;;;;;;;;5079350;28;20093;-70
2022/03/22 08:37:35;;;;;;;78.78;48.25;;;;;;;;;;5079376;28;20031;-66
2022/03/22 08:40:00;;;;;;;77.82;44.58;;;;;;;;;;5078863;28;20023;-67
2022/03/22 08:42:26;;;;;;;79.30;47.33;;;;;;;;;;5079231;28;20031;-68
2022/03/22 08:44:51;;;;;;;71.82;46.60;;;;;;;;;;5079272;28;20447;-66
2022/03/22 08:47:17;;;;;;;119.55;79.10;;;;;;;;;;5078657;28;20032;-67
2022/03/22 08:49:42;;;;;;;78.95;47.83;;;;;;;;;;5079727;28;20331;-67
2022/03/22 08:52:07;;;;;;;45.75;30.23;;;;;;;;;;5079934;28;20139;-69
2022/03/22 08:54:33;;;;;;;31.88;20.25;;;;;;;;;;5079611;28;21221;-67
2022/03/22 08:56:58;;;;;;;29.80;21.30;;;;;;;;;;5079162;28;20098;-70
2022/03/22 08:59:24;;;;;;;24.13;17.42;;;;;;;;;;5079921;28;20021;-68
2022/03/22 09:01:52;;;;;;;23.25;18.10;;;;;;;;;;5079392;28;20031;-68
2022/03/22 09:07:02;;;;;;;24.20;15.93;;;;;;;;;;5078999;28;20058;-68
2022/03/22 09:09:29;;;;;;;21.25;16.13;;;;;;;;;;5082992;28;20435;-67
2022/03/22 09:11:54;;;;;;;28.83;19.33;;;;;;;;;;5083581;28;20415;-68
2022/03/22 09:14:20;;;;;;;24.90;17.10;;;;;;;;;;5082843;28;20032;-69
2022/03/22 09:16:45;;;;;;;20.95;14.15;;;;;;;;;;5083191;28;20114;-68
2022/03/22 09:19:11;;;;;;;18.58;12.10;;;;;;;;;;5082759;28;20035;-71
2022/03/22 09:21:36;;;;;;;17.02;12.32;;;;;;;;;;5081222;28;20031;-68
2022/03/22 09:24:05;;;;;;;18.98;11.27;;;;;;;;;;5083373;28;20047;-69
2022/03/22 09:26:30;;;;;;;16.70;11.75;;;;;;;;;;5083225;28;20035;-69
2022/03/22 09:28:56;;;;;;;14.55;11.88;;;;;;;;;;5081619;28;20025;-71
2022/03/22 09:31:23;;;;;;;17.50;12.50;;;;;;;;;;5082400;28;20024;-68
2022/03/22 09:33:48;;;;;;;18.17;12.73;;;;;;;;;;5081919;28;20089;-69
2022/03/22 09:36:14;;;;;;;22.60;13.52;;;;;;;;;;5082039;28;20036;-68
2022/03/22 09:38:39;;;;;;;17.17;12.35;;;;;;;;;;5082325;28;20023;-69
2022/03/22 09:41:06;;;;;;;16.98;11.50;;;;;;;;;;5081991;28;20104;-69
2022/03/22 09:43:33;;;;;;;18.02;12.52;;;;;;;;;;5082327;28;20465;-67
2022/03/22 09:46:00;;;;;;;12.48;9.23;;;;;;;;;;5082834;28;20032;-68
2022/03/22 09:48:28;;;;;;;12.77;9.40;;;;;;;;;;5081602;28;20118;-68
2022/03/22 09:53:37;;;;;;;16.63;11.50;;;;;;;;;;5082318;28;20085;-69
2022/03/22 09:56:02;;;;;;;15.95;12.52;;;;;;;;;;5081503;28;20048;-68
2022/03/22 09:58:28;;;;;;;12.88;9.80;;;;;;;;;;5081419;28;20065;-68
2022/03/22 10:00:53;;;;;;;14.60;10.57;;;;;;;;;;5082722;28;20119;-69
2022/03/22 10:03:20;;;;;;;16.13;12.07;;;;;;;;;;5082522;28;20043;-69
2022/03/22 10:05:55;;;;;;;14.65;10.57;;;;;;;;;;5081357;28;20026;-68
2022/03/22 10:08:20;;;;;;;16.17;12.25;;;;;;;;;;5081733;28;20111;-71
2022/03/22 10:10:52;;;;;;;18.27;12.85;;;;;;;;;;5082000;28;20107;-69
2022/03/22 10:13:17;;;;;;;17.90;11.75;;;;;;;;;;5081555;28;20054;-71
2022/03/22 10:15:43;;;;;;;19.20;11.38;;;;;;;;;;5082188;28;20024;-68
2022/03/22 10:18:10;;;;;;;30.52;23.23;;;;;;;;;;5060669;28;20059;-69
2022/03/22 10:20:39;;;;;;;15.50;11.13;;;;;;;;;;5080839;28;20142;-69
2022/03/22 10:23:06;;;;;;;44.40;31.77;;;;;;;;;;5082324;28;20119;-68
2022/03/22 10:25:32;;;;;;;32.90;25.35;;;;;;;;;;5081018;28;20028;-69
2022/03/22 10:27:59;;;;;;;18.83;13.52;;;;;;;;;;5081999;28;20069;-72
2022/03/22 10:30:25;;;;;;;11.32;9.10;;;;;;;;;;5081258;28;20023;-69
2022/03/22 10:32:53;;;;;;;15.93;11.70;;;;;;;;;;5081398;28;20028;-68
2022/03/22 10:35:23;;;;;;;15.40;9.95;;;;;;;;;;5081981;28;20019;-70
2022/03/22 10:37:53;;;;;;;10.10;8.30;;;;;;;;;;5080820;28;20173;-71
2022/03/22 10:40:18;;;;;;;;;;;;;;;;;;5081952;28;20016;-68
2022/03/22 10:42:44;;;;;;;17.20;10.83;;;;;;;;;;5081749;28;19965;-69
2022/03/22 10:45:09;;;;;;;25.10;15.25;;;;;;;;;;5080977;28;20408;-69
2022/03/22 10:47:34;;;;;;;12.07;9.15;;;;;;;;;;5080365;28;20040;-71
2022/03/22 10:50:05;;;;;;;12.48;9.65;;;;;;;;;;5081415;28;20052;-72
2022/03/22 10:52:30;;;;;;;13.38;9.05;;;;;;;;;;5081682;28;20027;-71
2022/03/22 10:54:56;;;;;;;15.10;9.73;;;;;;;;;;5081511;28;20035;-71
2022/03/22 10:57:29;;;;;;;13.18;9.07;;;;;;;;;;5081544;28;20036;-72
2022/03/22 10:59:55;;;;;;;10.27;7.15;;;;;;;;;;5079431;28;20089;-76
2022/03/22 11:02:22;;;;;;;10.32;7.90;;;;;;;;;;5080939;28;20439;-71
2022/03/22 11:04:48;;;;;;;9.77;7.05;;;;;;;;;;5081247;28;20051;-70
2022/03/22 11:07:15;;;;;;;13.02;7.80;;;;;;;;;;5080834;28;20120;-71
2022/03/22 11:09:41;;;;;;;9.35;7.13;;;;;;;;;;5081007;28;20119;-70
2022/03/22 11:12:07;;;;;;;9.00;7.03;;;;;;;;;;5081195;28;20035;-70
2022/03/22 11:14:34;;;;;;;10.05;8.15;;;;;;;;;;5080864;28;20052;-71
2022/03/22 11:17:00;;;;;;;9.02;6.60;;;;;;;;;;5081411;28;20036;-70
2022/03/22 11:19:25;;;;;;;7.88;6.32;;;;;;;;;;5080881;28;20047;-71
2022/03/22 11:21:51;;;;;;;12.27;7.63;;;;;;;;;;5080362;28;20427;-72
2022/03/22 11:24:22;;;;;;;8.38;6.65;;;;;;;;;;5080895;28;20468;-70
2022/03/22 11:26:51;;;;;;;9.05;6.32;;;;;;;;;;5081221;28;20124;-71
2022/03/22 11:29:20;;;;;;;9.43;7.50;;;;;;;;;;5079662;28;20455;-72
2022/03/22 11:34:08;;;;;;;11.25;7.38;;;;;;;;;;5081521;28;20035;-71
2022/03/22 11:34:32;;;;;;;18.73;10.77;;;;;;;;;;5079449;28;20093;-73
2022/03/22 11:36:59;;;;;;;10.52;7.75;;;;;;;;;;5079920;28;20031;-73
2022/03/22 11:42:15;;;;;;;68.55;31.35;;;;;;;;;;5080976;28;20453;-72
2022/03/22 11:42:17;;;;;;;52.05;27.30;;;;;;;;;;5079708;28;20054;-71
2022/03/22 11:44:42;;;;;;;33.25;17.25;;;;;;;;;;5079720;28;20032;-72
2022/03/22 11:47:11;;;;;;;30.83;16.90;;;;;;;;;;5080936;28;20105;-71
2022/03/22 11:49:53;;;;;;;21.93;12.80;;;;;;;;;;5061846;28;20430;-73
2022/03/22 11:52:39;;;;;;;15.30;10.25;;;;;;;;;;5080562;28;20405;-71
2022/03/22 11:55:18;;;;;;;64.03;34.38;;;;;;;;;;5080949;28;20036;-71
2022/03/22 11:57:44;;;;;;;36.53;19.92;;;;;;;;;;5062666;28;20035;-71
2022/03/22 12:00:11;;;;;;;63.22;36.00;;;;;;;;;;5080594;28;20072;-72
2022/03/22 12:02:38;;;;;;;26.77;16.75;;;;;;;;;;5079902;28;20032;-74
2022/03/22 12:05:04;;;;;;;15.20;9.57;;;;;;;;;;5080209;28;20416;-72
2022/03/22 12:07:35;;;;;;;15.57;9.95;;;;;;;;;;5079819;28;20063;-72
2022/03/22 12:10:06;;;;;;;75.22;44.78;;;;;;;;;;5079480;28;20059;-72
2022/03/22 12:12:32;;;;;;;65.80;40.50;;;;;;;;;;5079611;28;20046;-69
2022/03/22 12:15:00;;;;;;;82.03;44.65;;;;;;;;;;5080450;28;20440;-71
2022/03/22 12:17:25;;;;;;;68.97;47.58;;;;;;;;;;5079683;28;20434;-72
2022/03/22 12:19:51;;;;;;;45.05;32.55;;;;;;;;;;5078969;28;20020;-72
2022/03/22 12:22:17;;;;;;;31.27;19.92;;;;;;;;;;5079574;28;20469;-69
2022/03/22 12:24:43;;;;;;;54.47;30.17;;;;;;;;;;5079698;28;20085;-69
2022/03/22 12:27:09;;;;;;;77.93;50.45;;;;;;;;;;5079250;28;20389;-72
2022/03/22 12:29:41;;;;;;;36.42;24.58;;;;;;;;;;5061230;28;20047;-71
2022/03/22 12:32:33;;;;;;;68.00;44.25;;;;;;;;;;5078748;28;20034;-70
2022/03/22 12:34:58;;;;;;;24.20;16.95;;;;;;;;;;5078499;28;20062;-71
2022/03/22 12:37:23;;;;;;;17.00;12.02;;;;;;;;;;5079609;28;20040;-73
2022/03/22 12:39:49;;;;;;;25.33;17.83;;;;;;;;;;5079399;28;20433;-70
2022/03/22 12:42:15;;;;;;;16.45;10.93;;;;;;;;;;5079253;28;20055;-71
2022/03/22 12:44:41;;;;;;;26.00;17.50;;;;;;;;;;5080057;28;20018;-70
2022/03/22 12:47:06;;;;;;;28.02;15.70;;;;;;;;;;5078461;28;20028;-70
2022/03/22 12:49:33;;;;;;;12.80;8.40;;;;;;;;;;5079609;28;20134;-72
2022/03/22 12:52:00;;;;;;;113.68;68.07;;;;;;;;;;5079642;28;20073;-73
2022/03/22 12:54:30;;;;;;;23.42;14.50;;;;;;;;;;5079264;28;20086;-72
2022/03/22 12:56:56;;;;;;;31.40;19.55;;;;;;;;;;5079928;28;20020;-72
2022/03/22 12:59:23;;;;;;;65.32;38.63;;;;;;;;;;5080022;28;20046;-69
2022/03/22 13:01:58;;;;;;;52.65;30.45;;;;;;;;;;5078789;28;20031;-70
2022/03/22 13:04:31;;;;;;;75.15;43.10;;;;;;;;;;5079829;28;20059;-70
2022/03/22 13:06:58;;;;;;;64.10;38.88;;;;;;;;;;5075389;28;20040;-71
2022/03/22 13:12:11;;;;;;;106.55;63.00;;;;;;;;;;5064830;28;20477;-69
2022/03/22 13:17:21;;;;;;;33.42;23.05;;;;;;;;;;5067839;28;20074;-68
2022/03/22 13:19:46;;;;;;;21.38;16.02;;;;;;;;;;5066476;28;21363;-67
2022/03/22 13:22:20;;;;;;;28.88;20.38;;;;;;;;;;5076996;28;20024;-69
2022/03/22 13:24:46;;;;;;;15.38;11.43;;;;;;;;;;5078058;28;20024;-68
2022/03/22 13:27:11;;;;;;;17.48;11.63;;;;;;;;;;5078129;28;20082;-71
2022/03/22 13:29:43;;;;;;;19.60;14.38;;;;;;;;;;5076659;28;20081;-71
2022/03/22 13:32:10;;;;;;;16.00;11.10;;;;;;;;;;5077734;28;20032;-70
2022/03/22 13:34:38;;;;;;;13.60;10.57;;;;;;;;;;5077623;28;20024;-71
2022/03/22 13:37:03;;;;;;;17.52;11.77;;;;;;;;;;5076289;28;20036;-71
2022/03/22 13:39:28;;;;;;;38.88;25.55;;;;;;;;;;5068940;28;20032;-70
2022/03/22 13:42:03;;;;;;;25.02;16.75;;;;;;;;;;5069617;28;20020;-69
2022/03/22 13:44:29;;;;;;;19.27;13.10;;;;;;;;;;5067862;28;20036;-69
2022/03/22 13:46:59;;;;;;;29.90;23.17;;;;;;;;;;5065892;28;20054;-70
2022/03/22 13:49:32;;;;;;;19.10;12.65;;;;;;;;;;5075913;28;20020;-69
2022/03/22 13:51:57;;;;;;;30.27;22.25;;;;;;;;;;5076097;28;20495;-69
2022/03/22 13:54:23;;;;;;;17.92;11.75;;;;;;;;;;5079868;28;20126;-68
2022/03/22 13:56:50;;;;;;;23.70;18.23;;;;;;;;;;5081510;28;20038;-71
2022/03/22 13:59:15;;;;;;;23.30;16.50;;;;;;;;;;5082092;28;20338;-71
2022/03/22 14:01:41;;;;;;;24.35;17.17;;;;;;;;;;5068935;28;20020;-70
2022/03/22 14:04:06;;;;;;;26.35;19.02;;;;;;;;;;5068392;28;20048;-69
2022/03/22 14:06:31;;;;;;;29.52;20.92;;;;;;;;;;5069265;28;20036;-68
2022/03/22 14:08:57;;;;;;;19.25;13.27;;;;;;;;;;5081257;28;20423;-69
2022/03/22 14:11:23;;;;;;;27.55;14.85;;;;;;;;;;5082621;28;20513;-68
2022/03/22 14:13:48;;;;;;;23.75;17.67;;;;;;;;;;5080119;28;20040;-68
2022/03/22 14:16:13;;;;;;;21.55;14.00;;;;;;;;;;5072210;28;20484;-65
2022/03/22 14:18:39;;;;;;;12.98;9.40;;;;;;;;;;5070960;28;20449;-70
2022/03/22 14:21:04;;;;;;;22.40;17.30;;;;;;;;;;5074013;28;20020;-70
2022/03/22 14:23:30;;;;;;;21.25;15.18;;;;;;;;;;5071603;28;20028;-71
2022/03/22 14:25:56;;;;;;;11.30;8.52;;;;;;;;;;5068412;28;20027;-71
2022/03/22 14:28:25;;;;;;;28.27;19.38;;;;;;;;;;5071395;28;20035;-66
2022/03/22 14:30:53;;;;;;;54.33;31.92;;;;;;;;;;5075963;28;20111;-66
2022/03/22 14:33:18;;;;;;;22.42;13.90;;;;;;;;;;5069894;28;20031;-64
2022/03/22 14:35:47;;;;;;;13.82;9.82;;;;;;;;;;5079641;28;20407;-66
2022/03/22 14:38:14;;;;;;;64.43;36.63;;;;;;;;;;5080429;28;20089;-67
2022/03/22 14:40:40;;;;;;;58.65;33.03;;;;;;;;;;5081136;28;20023;-64